Airfield :
LOGIN :

Register | Disclaimer

   EN    FR    IT 

 










Legend :    VFR   Marginal VFR   IFR   Intensive IFR   Very Intensive IFR
Visi :
Ceiling :
>= 8 km
>= 3000ft
5 to 8 km
1000 to 3000 ft
1500m to 5 km
500 to 1000 ft
800 to 1500m
200 to 500 ft
< 800m
< 200 ft
Symbols :   Thunderstorms  Fog  Heavy snow  Heavy precipitations  Wind > 20 kt
SIGMETs :     Misc.  Thunderstorms  Icing  Turbulence  Mountain Waves  Volcanic Ashes






- Airport Elevation : 330 ft
- IATA code : LVA


LFOV - Laval-Entrammes

CURRENT METAR :
  • 261130Z AUTO VRB02KT 3600 BR OVC005 01/00 Q1036

EXPIRED METARs :
  • 261100Z AUTO 07004KT 3600 BR OVC005 01/00 Q1036
  • 261030Z AUTO VRB02KT 3600 BR OVC005 00/00 Q1036
  • 261000Z AUTO 14004KT 110V170 3300 BR OVC005 00/M00 Q1035
  • 260930Z AUTO VRB03KT 3200 BR OVC005 M00/M00 Q1036
  • 260900Z AUTO VRB01KT 2900 BR OVC004 M00/M01 Q1035

TAF N/A



MET'MAP, your aeronautical weather chart ! - Copyright ORBIFLY December 2007 - Disclaimer

ORBIFLY MET'MAP TEAM :

Programming & Development : Alexandra Zaïnal
Original concept : Baudouin d'Aumeries
Technical & hardware support : Manuel Goepfert
Assistance : Marc-Olivier Méhu

Contact : metmap@orbifly.com




SOURCES & CREDITS :

   NOAA